Time;durP1;ratioP1;P1;durP2;ratioP2;P2;SDS_P1;SDS_P2;PMS_P1;PMS_P2;Temp;Humidity;BMP_temperature;BMP_pressure;BME280_temperature;BME280_humidity;BME280_pressure;Samples;Min_cycle;Max_cycle;Signal;HPM_P1;HPM_P2
2021/07/04 00:00:56;;;;;;;7.10;6.50;;;21.60;38.20;;;;;;4749757;30;20483;-82
2021/07/04 00:03:57;;;;;;;7.73;7.03;;;21.60;38.20;;;;;;4764994;30;20520;-83
2021/07/04 00:06:23;;;;;;;7.80;7.10;;;21.60;38.20;;;;;;4780834;30;20464;-83
2021/07/04 00:08:48;;;;;;;8.10;7.40;;;21.60;38.10;;;;;;4751441;30;20545;-83
2021/07/04 00:11:14;;;;;;;6.70;6.10;;;21.60;38.10;;;;;;4751781;30;20241;-82
2021/07/04 00:13:40;;;;;;;6.90;6.30;;;21.60;38.10;;;;;;4781373;30;20194;-83
2021/07/04 00:16:06;;;;;;;7.07;6.47;;;21.60;38.10;;;;;;4752338;30;20207;-82
2021/07/04 00:18:33;;;;;;;7.03;6.43;;;21.60;38.10;;;;;;4751419;30;20264;-82
2021/07/04 00:21:00;;;;;;;6.87;6.17;;;21.60;38.10;;;;;;4780561;30;20491;-83
2021/07/04 00:23:27;;;;;;;7.50;6.90;;;21.60;38.00;;;;;;4753059;30;20424;-83
2021/07/04 00:25:53;;;;;;;6.93;6.43;;;21.60;38.00;;;;;;4752423;30;20453;-83
2021/07/04 00:28:22;;;;;;;7.37;6.77;;;21.60;38.00;;;;;;4752215;30;20933;-83
2021/07/04 00:30:48;;;;;;;6.93;6.43;;;21.60;38.00;;;;;;4752791;30;20452;-83
2021/07/04 00:33:13;;;;;;;7.40;6.70;;;21.60;38.00;;;;;;4753476;30;20862;-83
2021/07/04 00:35:39;;;;;;;8.30;7.60;;;21.60;38.60;;;;;;4753311;30;20881;-82
2021/07/04 00:38:08;;;;;;;6.83;6.23;;;21.60;38.00;;;;;;4756156;30;20182;-83
2021/07/04 00:40:35;;;;;;;7.23;6.63;;;21.60;38.00;;;;;;4757699;30;20202;-83
2021/07/04 00:43:02;;;;;;;7.43;6.83;;;21.60;38.00;;;;;;4757664;30;20421;-84
2021/07/04 00:45:28;;;;;;;7.17;6.47;;;21.60;38.00;;;;;;4757764;30;20417;-83
2021/07/04 00:47:55;;;;;;;7.70;7.00;;;21.60;38.00;;;;;;4756934;30;20440;-83
2021/07/04 00:50:24;;;;;;;7.17;6.57;;;21.60;37.90;;;;;;4758285;30;20199;-82
2021/07/04 00:52:50;;;;;;;7.80;7.20;;;21.60;38.00;;;;;;4786352;30;20439;-83
2021/07/04 00:55:17;;;;;;;6.83;6.23;;;21.60;37.90;;;;;;4757444;30;20420;-82
2021/07/04 00:57:44;;;;;;;7.40;6.70;;;21.60;37.90;;;;;;4757350;30;20424;-82
2021/07/04 01:00:13;;;;;;;7.10;6.50;;;21.60;37.90;;;;;;4786313;30;20534;-84
2021/07/04 01:02:39;;;;;;;6.50;6.00;;;21.60;37.90;;;;;;4758274;30;20425;-83
2021/07/04 01:05:20;;;;;;;6.57;6.03;;;21.60;37.90;;;;;;4757320;30;20424;-82
2021/07/04 01:07:47;;;;;;;6.10;5.60;;;21.60;37.90;;;;;;4759521;30;20421;-82
2021/07/04 01:10:15;;;;;;;6.80;6.30;;;21.60;37.90;;;;;;4759076;30;20835;-84
2021/07/04 01:12:46;;;;;;;6.83;6.23;;;21.50;37.80;;;;;;4760208;30;20484;-83
2021/07/04 01:15:12;;;;;;;7.70;7.20;;;21.60;37.90;;;;;;4759002;30;20993;-83
2021/07/04 01:17:38;;;;;;;6.60;6.10;;;21.60;37.90;;;;;;4759725;30;20534;-83
2021/07/04 01:20:07;;;;;;;6.40;6.00;;;21.60;37.90;;;;;;4759872;30;20464;-84
2021/07/04 01:22:35;;;;;;;6.60;6.17;;;21.50;37.70;;;;;;4758885;30;20433;-84
2021/07/04 01:25:00;;;;;;;7.30;6.70;;;21.50;37.70;;;;;;4759226;30;20420;-84
2021/07/04 01:27:27;;;;;;;6.00;5.57;;;21.50;38.50;;;;;;4759534;30;20456;-84
2021/07/04 01:29:52;;;;;;;6.00;5.50;;;21.60;37.80;;;;;;4760495;30;20243;-84
2021/07/04 01:32:18;;;;;;;6.90;6.30;;;21.60;37.80;;;;;;4758250;30;20429;-83
2021/07/04 01:34:44;;;;;;;6.30;5.90;;;21.60;37.90;;;;;;4788150;30;20455;-84
2021/07/04 01:37:09;;;;;;;6.70;6.20;;;21.60;37.80;;;;;;4759307;30;20735;-83
2021/07/04 01:39:35;;;;;;;7.93;6.87;;;21.50;37.80;;;;;;4759552;30;20356;-83
2021/07/04 01:42:00;;;;;;;6.50;6.10;;;21.50;37.70;;;;;;4757972;30;20193;-84
2021/07/04 01:44:26;;;;;;;5.93;5.53;;;21.50;37.70;;;;;;4758918;30;20179;-82
2021/07/04 01:46:52;;;;;;;6.70;6.10;;;21.60;37.80;;;;;;4788674;30;20237;-84
2021/07/04 01:49:17;;;;;;;6.40;5.90;;;21.50;37.70;;;;;;4758683;30;20202;-84
2021/07/04 01:51:43;;;;;;;7.00;6.40;;;21.50;37.70;;;;;;4758480;30;20194;-82
2021/07/04 01:54:09;;;;;;;5.17;4.77;;;21.50;37.70;;;;;;4759625;30;20191;-84
2021/07/04 01:56:35;;;;;;;6.03;5.63;;;21.50;37.70;;;;;;4759391;30;20461;-83
2021/07/04 01:59:00;;;;;;;6.27;5.63;;;21.50;37.70;;;;;;4759966;30;20212;-84
2021/07/04 02:01:26;;;;;;;6.00;5.60;;;21.50;37.70;;;;;;4758408;30;20862;-84
2021/07/04 02:03:52;;;;;;;6.53;6.03;;;21.50;37.70;;;;;;4759645;30;20186;-83
2021/07/04 02:06:20;;;;;;;6.10;5.70;;;21.50;37.70;;;;;;4759178;30;20203;-83
2021/07/04 02:08:46;;;;;;;6.00;5.50;;;21.50;37.70;;;;;;4759436;30;20259;-84
2021/07/04 02:11:11;;;;;;;5.43;5.00;;;21.50;37.70;;;;;;4759069;30;20461;-84
2021/07/04 02:13:37;;;;;;;6.03;5.63;;;21.50;37.70;;;;;;4758666;30;20183;-83
2021/07/04 02:16:03;;;;;;;6.07;5.60;;;21.50;37.70;;;;;;4758411;30;20213;-84
2021/07/04 02:18:29;;;;;;;6.30;5.90;;;21.50;37.70;;;;;;4759656;30;20198;-83
2021/07/04 02:20:55;;;;;;;6.43;5.93;;;21.50;37.70;;;;;;4758197;30;20834;-84
2021/07/04 02:23:27;;;;;;;6.60;6.10;;;21.50;37.70;;;;;;4757857;30;20187;-83
2021/07/04 02:25:55;;;;;;;5.63;5.30;;;21.50;37.70;;;;;;4759160;30;20611;-83
2021/07/04 02:28:23;;;;;;;6.40;5.90;;;21.50;37.70;;;;;;4756893;30;20524;-81
2021/07/04 02:30:50;;;;;;;6.10;5.67;;;21.50;37.70;;;;;;4756521;30;20443;-82
2021/07/04 02:33:17;;;;;;;6.47;5.87;;;21.50;38.40;;;;;;4784846;30;20441;-81
2021/07/04 02:35:48;;;;;;;6.60;5.90;;;21.60;38.80;;;;;;4754661;30;20514;-82
2021/07/04 02:38:14;;;;;;;5.50;5.10;;;21.60;39.10;;;;;;4784638;30;20446;-81
2021/07/04 02:40:40;;;;;;;5.97;5.57;;;21.60;39.00;;;;;;4755658;30;20864;-81
2021/07/04 02:43:08;;;;;;;6.90;5.97;;;21.70;39.30;;;;;;4769823;30;20441;-81
2021/07/04 02:45:34;;;;;;;6.40;5.80;;;21.70;39.30;;;;;;4754988;30;20431;-81
2021/07/04 02:48:00;;;;;;;5.73;5.33;;;21.70;39.30;;;;;;4769235;30;20467;-81
2021/07/04 02:50:25;;;;;;;6.57;6.00;;;21.70;39.50;;;;;;4755566;30;20456;-81
2021/07/04 02:52:52;;;;;;;5.83;5.33;;;21.70;39.40;;;;;;4784066;30;20187;-81
2021/07/04 02:55:20;;;;;;;6.30;5.80;;;21.70;39.50;;;;;;4755076;30;20187;-81
2021/07/04 02:57:46;;;;;;;5.63;5.20;;;21.70;39.50;;;;;;4783934;30;20464;-81
2021/07/04 03:00:15;;;;;;;5.60;5.20;;;21.70;39.60;;;;;;4783181;29;20476;-81
2021/07/04 03:02:42;;;;;;;6.17;5.67;;;21.70;39.60;;;;;;4755322;30;20582;-82
2021/07/04 03:05:09;;;;;;;6.33;6.03;;;21.70;39.60;;;;;;4755801;30;20792;-81
2021/07/04 03:07:36;;;;;;;6.57;6.13;;;21.70;39.60;;;;;;4757125;30;20962;-81
2021/07/04 03:10:06;;;;;;;7.13;5.93;;;21.70;39.60;;;;;;4755708;30;20455;-81
2021/07/04 03:12:31;;;;;;;5.10;4.80;;;21.70;39.60;;;;;;4755502;30;20456;-81
2021/07/04 03:14:58;;;;;;;6.17;5.77;;;21.70;39.70;;;;;;4754722;30;20801;-80
2021/07/04 03:17:23;;;;;;;7.27;5.63;;;21.70;39.70;;;;;;4753105;30;20222;-81
2021/07/04 03:19:49;;;;;;;6.33;5.87;;;21.70;39.60;;;;;;4754028;30;20456;-81
2021/07/04 03:22:14;;;;;;;6.53;6.03;;;21.70;39.70;;;;;;4754265;30;20189;-81
2021/07/04 03:24:40;;;;;;;6.20;5.70;;;21.80;39.80;;;;;;4754168;30;20179;-81
2021/07/04 03:27:09;;;;;;;6.87;5.90;;;21.80;39.90;;;;;;4753893;30;20253;-81
2021/07/04 03:29:35;;;;;;;6.60;6.20;;;21.80;40.00;;;;;;4752474;30;20577;-81
2021/07/04 03:32:01;;;;;;;6.23;5.83;;;21.80;40.00;;;;;;4782172;30;20434;-80
2021/07/04 03:34:27;;;;;;;6.00;5.60;;;21.80;40.00;;;;;;4753695;30;20179;-79
2021/07/04 03:36:52;;;;;;;5.83;5.43;;;21.80;40.00;;;;;;4753221;30;20449;-79
2021/07/04 03:39:18;;;;;;;6.27;5.87;;;21.80;40.00;;;;;;4751894;30;20255;-81
2021/07/04 03:41:43;;;;;;;7.10;6.13;;;21.80;40.10;;;;;;4752942;30;20602;-80
2021/07/04 03:44:09;;;;;;;6.17;5.77;;;21.80;40.10;;;;;;4752742;30;20234;-81
2021/07/04 03:46:35;;;;;;;6.00;5.60;;;21.80;40.10;;;;;;4767267;30;20202;-81
2021/07/04 03:49:01;;;;;;;6.00;5.60;;;21.80;40.20;;;;;;4771802;30;20199;-80
2021/07/04 03:51:26;;;;;;;5.87;5.47;;;21.80;40.20;;;;;;4755909;30;20183;-82
2021/07/04 03:53:52;;;;;;;6.10;5.70;;;21.80;40.10;;;;;;4785049;30;20655;-82
2021/07/04 03:56:19;;;;;;;6.17;5.67;;;21.80;40.20;;;;;;4755599;30;20202;-81
2021/07/04 03:58:44;;;;;;;6.40;5.80;;;21.80;40.20;;;;;;4755863;30;20266;-81
2021/07/04 04:01:18;;;;;;;5.63;5.23;;;21.80;40.50;;;;;;4784424;30;20508;-82
2021/07/04 04:03:44;;;;;;;6.13;5.60;;;21.80;40.40;;;;;;4756100;30;20552;-82
2021/07/04 04:06:10;;;;;;;6.00;5.40;;;21.80;40.40;;;;;;4755400;30;20445;-82
2021/07/04 04:08:35;;;;;;;7.10;6.10;;;21.70;40.40;;;;;;4782584;30;20936;-82
2021/07/04 04:11:04;;;;;;;6.90;5.57;;;21.70;40.60;;;;;;4782890;30;20298;-82
2021/07/04 04:13:30;;;;;;;6.53;6.00;;;21.80;40.80;;;;;;4781603;30;20706;-82
2021/07/04 04:15:55;;;;;;;6.27;5.77;;;21.80;40.80;;;;;;4783164;30;20453;-82
2021/07/04 04:18:21;;;;;;;5.60;5.10;;;21.70;40.80;;;;;;4753870;30;20754;-82
2021/07/04 04:20:47;;;;;;;5.77;5.43;;;21.80;40.80;;;;;;4754246;30;20301;-82
2021/07/04 04:23:12;;;;;;;5.73;5.37;;;21.80;40.80;;;;;;4754141;30;20201;-82
2021/07/04 04:25:38;;;;;;;5.60;5.20;;;21.70;40.70;;;;;;4755747;30;20234;-81
2021/07/04 04:28:05;;;;;;;6.97;6.37;;;21.70;40.60;;;;;;4755094;30;20197;-82
2021/07/04 04:30:34;;;;;;;7.63;5.77;;;21.70;40.60;;;;;;4784570;30;20190;-81
2021/07/04 04:33:03;;;;;;;6.40;5.90;;;21.70;40.60;;;;;;4753845;30;20433;-81
2021/07/04 04:35:29;;;;;;;5.63;5.23;;;21.80;40.70;;;;;;4783901;30;20444;-82
2021/07/04 04:37:56;;;;;;;5.47;5.17;;;21.70;40.60;;;;;;4754827;30;20424;-81
2021/07/04 04:40:22;;;;;;;6.37;5.90;;;21.80;40.60;;;;;;4755519;30;20212;-81
2021/07/04 04:42:47;;;;;;;6.30;5.80;;;21.80;40.60;;;;;;4755357;30;21247;-81
2021/07/04 04:45:13;;;;;;;6.10;5.70;;;21.70;40.60;;;;;;4753863;30;20209;-81
2021/07/04 04:47:45;;;;;;;6.93;6.17;;;21.70;40.50;;;;;;4784789;30;20211;-82
2021/07/04 04:50:11;;;;;;;6.10;5.70;;;21.80;40.60;;;;;;4754810;30;20456;-81
2021/07/04 04:52:38;;;;;;;5.40;5.10;;;21.80;40.70;;;;;;4779323;29;20479;-81
2021/07/04 04:55:08;;;;;;;6.10;5.67;;;21.70;40.70;;;;;;4764359;30;20428;-82
2021/07/04 04:57:34;;;;;;;6.00;5.60;;;21.70;40.70;;;;;;4802169;29;20852;-81
2021/07/04 05:00:01;;;;;;;6.57;6.17;;;21.80;40.80;;;;;;4773090;30;20459;-82
2021/07/04 05:02:27;;;;;;;9.90;6.40;;;21.70;40.80;;;;;;4801709;29;20432;-82
2021/07/04 05:04:54;;;;;;;8.70;6.33;;;21.80;41.00;;;;;;4786236;29;20452;-82
2021/07/04 05:07:20;;;;;;;6.10;5.50;;;21.70;40.90;;;;;;4788134;29;20484;-82
2021/07/04 05:09:51;;;;;;;5.90;5.40;;;21.70;40.90;;;;;;4755451;30;20452;-83
2021/07/04 05:12:22;;;;;;;5.97;5.57;;;21.80;41.20;;;;;;4755218;30;20998;-83
2021/07/04 05:15:01;;;;;;;6.03;5.63;;;21.80;41.00;;;;;;4768426;30;20502;-83
2021/07/04 05:17:33;;;;;;;6.40;5.90;;;21.70;41.40;;;;;;4757521;30;20463;-83
2021/07/04 05:20:00;;;;;;;6.50;6.10;;;21.70;41.70;;;;;;4756405;30;20471;-83
2021/07/04 05:22:27;;;;;;;6.60;6.20;;;21.70;42.20;;;;;;4769273;30;20445;-83
2021/07/04 05:25:21;;;;;;;5.77;5.47;;;21.60;41.70;;;;;;4761168;30;20429;-83
2021/07/04 05:28:11;;;;;;;5.57;5.20;;;21.60;41.70;;;;;;4756857;30;20448;-82
2021/07/04 05:30:37;;;;;;;6.00;5.60;;;21.60;41.70;;;;;;4756653;30;20443;-83
2021/07/04 05:33:03;;;;;;;6.30;5.90;;;21.60;42.00;;;;;;4757286;30;20441;-82
2021/07/04 05:35:28;;;;;;;7.30;6.60;;;21.60;42.00;;;;;;4757396;30;20272;-83
2021/07/04 05:37:54;;;;;;;6.53;6.03;;;21.60;42.10;;;;;;4756891;30;20194;-83
2021/07/04 05:40:22;;;;;;;7.07;6.57;;;21.60;42.40;;;;;;4765761;30;20213;-82
2021/07/04 05:42:48;;;;;;;6.53;6.03;;;21.60;42.20;;;;;;4799973;29;20182;-82
2021/07/04 05:45:21;;;;;;;6.57;6.10;;;21.70;42.30;;;;;;4775694;30;20523;-83
2021/07/04 05:47:47;;;;;;;7.10;6.60;;;21.70;42.50;;;;;;4805624;29;20213;-83
2021/07/04 05:50:13;;;;;;;6.50;6.10;;;21.70;42.30;;;;;;4775803;30;20513;-83
2021/07/04 05:52:38;;;;;;;6.70;6.10;;;21.70;43.10;;;;;;4775132;30;20193;-82
2021/07/04 05:55:04;;;;;;;7.00;6.30;;;21.70;42.70;;;;;;4774604;30;20182;-82
2021/07/04 05:57:32;;;;;;;6.33;5.93;;;21.70;42.40;;;;;;4773041;30;20300;-85
2021/07/04 05:59:58;;;;;;;6.60;6.00;;;21.70;42.50;;;;;;4768093;30;20461;-81
2021/07/04 06:02:23;;;;;;;6.80;6.30;;;21.70;42.60;;;;;;4773020;30;20974;-81
2021/07/04 06:04:49;;;;;;;7.10;6.40;;;21.60;42.80;;;;;;4773736;30;20595;-82
2021/07/04 06:07:15;;;;;;;6.00;5.60;;;21.60;42.60;;;;;;4772770;30;20213;-84
2021/07/04 06:09:40;;;;;;;6.47;6.00;;;21.60;42.60;;;;;;4772946;30;20190;-81
2021/07/04 06:12:06;;;;;;;5.77;5.40;;;21.60;42.60;;;;;;4773904;30;20189;-82
2021/07/04 06:14:32;;;;;;;6.80;6.20;;;21.60;42.90;;;;;;4772552;30;20200;-81
2021/07/04 06:16:57;;;;;;;6.50;6.00;;;21.60;42.90;;;;;;4774367;30;20971;-81
2021/07/04 06:19:23;;;;;;;6.60;6.20;;;21.60;42.70;;;;;;4773697;30;20193;-80
2021/07/04 06:21:48;;;;;;;6.47;5.97;;;21.60;42.90;;;;;;4773397;30;20183;-83
2021/07/04 06:24:14;;;;;;;6.63;6.23;;;21.60;42.90;;;;;;4787244;30;20186;-81
2021/07/04 06:26:41;;;;;;;6.73;5.90;;;21.60;42.90;;;;;;4769432;30;20679;-81
2021/07/04 06:29:09;;;;;;;6.40;6.00;;;21.60;43.00;;;;;;4771783;30;20283;-83
2021/07/04 06:31:35;;;;;;;6.33;5.93;;;21.60;42.90;;;;;;4771175;30;21012;-82
2021/07/04 06:34:01;;;;;;;8.37;5.93;;;21.50;43.40;;;;;;4771082;30;20436;-80
2021/07/04 06:36:27;;;;;;;5.97;5.67;;;21.60;43.30;;;;;;4769815;30;20240;-81
2021/07/04 06:38:57;;;;;;;6.57;5.97;;;21.60;42.90;;;;;;4770742;30;20224;-79
2021/07/04 06:41:23;;;;;;;6.03;5.70;;;21.60;42.80;;;;;;4770454;30;20880;-80
2021/07/04 06:43:49;;;;;;;6.43;6.03;;;21.60;42.70;;;;;;4771649;30;20420;-80
2021/07/04 06:46:15;;;;;;;5.73;5.43;;;21.60;42.50;;;;;;4770933;30;21039;-81
2021/07/04 06:48:40;;;;;;;6.43;6.03;;;21.60;42.80;;;;;;4771004;30;20267;-81
2021/07/04 06:51:07;;;;;;;6.60;6.00;;;21.60;43.00;;;;;;4770844;30;20204;-80
2021/07/04 06:53:33;;;;;;;6.50;6.00;;;21.70;43.40;;;;;;4770771;30;20190;-81
2021/07/04 06:55:59;;;;;;;6.63;6.03;;;21.70;43.60;;;;;;4770328;30;20471;-81
2021/07/04 06:58:24;;;;;;;6.30;5.90;;;21.70;43.20;;;;;;4770333;30;20536;-82
2021/07/04 07:00:50;;;;;;;6.83;6.33;;;21.70;43.10;;;;;;4769031;30;20221;-83
2021/07/04 07:03:16;;;;;;;6.40;5.90;;;21.70;43.30;;;;;;4769339;30;20186;-80
2021/07/04 07:05:41;;;;;;;6.90;6.40;;;21.70;43.10;;;;;;4771130;30;20682;-82
2021/07/04 07:08:07;;;;;;;8.80;7.30;;;21.70;43.30;;;;;;4773406;30;20174;-82
2021/07/04 07:10:32;;;;;;;7.83;6.97;;;21.70;43.70;;;;;;4771981;30;20225;-82
2021/07/04 07:12:59;;;;;;;7.50;6.80;;;21.70;43.40;;;;;;4801626;29;20193;-81
2021/07/04 07:15:25;;;;;;;6.30;5.70;;;21.70;43.30;;;;;;4772980;30;20189;-82
2021/07/04 07:17:50;;;;;;;6.43;5.93;;;21.70;43.30;;;;;;4773534;30;20485;-82
2021/07/04 07:20:17;;;;;;;6.43;5.83;;;21.70;43.40;;;;;;4773145;30;20202;-82
2021/07/04 07:22:43;;;;;;;6.10;5.70;;;21.70;43.20;;;;;;4771732;30;20186;-82
2021/07/04 07:25:09;;;;;;;6.70;6.00;;;21.70;43.10;;;;;;4771549;30;20413;-83
2021/07/04 07:27:54;;;;;;;6.93;6.23;;;21.80;43.00;;;;;;4771810;30;20522;-83
2021/07/04 07:30:21;;;;;;;6.40;5.77;;;21.70;43.00;;;;;;4801000;29;20459;-80
2021/07/04 07:32:48;;;;;;;7.83;7.13;;;21.70;42.80;;;;;;4763967;30;20440;-81
2021/07/04 07:35:13;;;;;;;6.60;5.97;;;21.70;42.90;;;;;;4755970;30;20420;-81
2021/07/04 07:37:40;;;;;;;12.10;7.63;;;21.70;43.00;;;;;;4757937;30;20508;-81
2021/07/04 07:40:07;;;;;;;12.93;7.80;;;21.80;43.10;;;;;;4758048;30;20471;-81
2021/07/04 07:42:32;;;;;;;9.00;7.00;;;21.80;43.00;;;;;;4766631;30;20448;-81
2021/07/04 07:44:58;;;;;;;10.10;8.10;;;21.80;43.10;;;;;;4757616;30;20783;-81
2021/07/04 07:47:23;;;;;;;10.13;6.90;;;21.80;43.10;;;;;;4757356;30;20211;-81
2021/07/04 07:49:49;;;;;;;9.93;7.50;;;21.80;43.10;;;;;;4758814;30;20202;-81
2021/07/04 07:52:15;;;;;;;12.80;8.13;;;21.80;43.10;;;;;;4758234;30;20191;-81
2021/07/04 07:54:40;;;;;;;9.40;7.80;;;21.80;43.00;;;;;;4756647;30;20190;-81
2021/07/04 07:57:07;;;;;;;9.33;7.70;;;21.80;42.80;;;;;;4758000;30;20206;-80
2021/07/04 07:59:33;;;;;;;7.70;7.10;;;21.80;42.70;;;;;;4757160;30;20179;-81
2021/07/04 08:01:58;;;;;;;7.37;6.53;;;21.80;42.70;;;;;;4757167;30;20427;-80
2021/07/04 08:04:25;;;;;;;8.80;7.53;;;21.80;42.90;;;;;;4759747;30;20191;-80
2021/07/04 08:06:50;;;;;;;11.67;7.73;;;21.80;42.80;;;;;;4760579;30;20206;-81
2021/07/04 08:09:16;;;;;;;7.47;6.87;;;21.80;42.70;;;;;;4758852;30;20515;-81
2021/07/04 08:11:45;;;;;;;7.67;6.83;;;21.80;42.50;;;;;;4757807;30;20189;-81
2021/07/04 08:14:11;;;;;;;6.73;6.23;;;21.80;42.40;;;;;;4757471;30;20194;-80
2021/07/04 08:16:36;;;;;;;10.70;7.67;;;21.90;42.80;;;;;;4756925;30;20448;-80
2021/07/04 08:19:02;;;;;;;7.47;6.97;;;21.80;42.30;;;;;;4756801;30;20187;-81
2021/07/04 08:21:28;;;;;;;8.97;7.60;;;21.90;42.50;;;;;;4757069;30;20236;-82
2021/07/04 08:23:55;;;;;;;7.70;7.00;;;21.90;42.40;;;;;;4757938;30;20668;-81
2021/07/04 08:26:21;;;;;;;8.17;7.47;;;21.90;42.60;;;;;;4756420;30;20445;-81
2021/07/04 08:28:46;;;;;;;7.67;7.00;;;21.90;42.80;;;;;;4758622;30;20455;-81
2021/07/04 08:31:15;;;;;;;8.43;7.17;;;21.90;42.70;;;;;;4757681;30;20198;-80
2021/07/04 08:33:41;;;;;;;7.73;7.03;;;21.90;42.50;;;;;;4756906;30;20247;-81
2021/07/04 08:36:06;;;;;;;6.97;6.47;;;21.90;42.50;;;;;;4755468;30;20543;-81
2021/07/04 08:38:33;;;;;;;7.50;6.90;;;21.90;42.30;;;;;;4761572;30;20685;-81
2021/07/04 08:40:58;;;;;;;8.33;7.53;;;21.90;42.30;;;;;;4763247;30;20297;-81
2021/07/04 08:43:30;;;;;;;6.77;6.27;;;21.90;42.00;;;;;;4774369;30;20468;-80
2021/07/04 08:45:56;;;;;;;7.37;6.87;;;21.90;42.10;;;;;;4805777;29;20233;-80
2021/07/04 08:48:22;;;;;;;7.90;7.30;;;21.90;42.00;;;;;;4808564;29;20420;-81
2021/07/04 08:50:54;;;;;;;6.90;6.40;;;21.90;42.00;;;;;;4779989;30;20997;-82
2021/07/04 08:53:20;;;;;;;7.70;7.00;;;21.90;42.00;;;;;;4805625;29;20436;-83
2021/07/04 08:55:47;;;;;;;7.63;7.13;;;21.90;42.30;;;;;;4803482;29;20539;-82
2021/07/04 08:58:19;;;;;;;8.03;7.37;;;21.90;42.30;;;;;;4803851;29;20436;-80
2021/07/04 09:01:05;;;;;;;7.40;6.57;;;21.90;42.00;;;;;;4807652;29;20531;-80
2021/07/04 09:03:31;;;;;;;7.87;7.27;;;21.90;42.00;;;;;;4806172;29;20428;-80
2021/07/04 09:05:57;;;;;;;9.03;7.17;;;22.00;42.10;;;;;;4803343;29;20448;-80
2021/07/04 09:08:23;;;;;;;7.57;6.97;;;21.90;42.00;;;;;;4805067;29;20485;-81
2021/07/04 09:11:16;;;;;;;8.57;7.80;;;22.00;42.00;;;;;;4775967;30;20192;-81
2021/07/04 09:13:45;;;;;;;8.47;7.90;;;22.00;42.00;;;;;;4777260;30;20435;-81
2021/07/04 09:16:31;;;;;;;7.10;6.40;;;22.00;42.10;;;;;;4778556;29;20475;-81
2021/07/04 09:19:11;;;;;;;7.33;6.73;;;22.00;42.10;;;;;;4805940;29;20423;-81
2021/07/04 09:21:37;;;;;;;7.70;7.00;;;22.00;42.00;;;;;;4805588;29;20463;-81
2021/07/04 09:24:22;;;;;;;6.73;6.13;;;22.00;42.10;;;;;;4805306;29;20440;-81
2021/07/04 09:26:48;;;;;;;7.77;7.07;;;22.00;42.10;;;;;;4805188;29;20812;-81
2021/07/04 10:07:42;;;;;;;6.83;6.33;;;22.00;41.40;;;;;;4682628;30;21035;-83
2021/07/04 10:48:18;;;;;;;;;;;;;;;;;;;;;
2021/07/04 10:51:43;;;;;;;7.37;6.77;;;22.10;41.00;;;;;;4670604;30;20532;-82
2021/07/04 10:57:58;;;;;;;7.90;6.20;;;22.10;41.30;;;;;;4667465;30;20448;-84
2021/07/04 11:00:59;;;;;;;7.93;7.20;;;22.10;41.90;;;;;;4652069;30;20500;-82
2021/07/04 11:03:40;;;;;;;7.40;6.80;;;22.10;43.10;;;;;;4620929;30;20599;-82
2021/07/04 11:06:06;;;;;;;7.47;6.97;;;22.10;42.90;;;;;;4665110;30;20449;-82
2021/07/04 11:08:51;;;;;;;6.83;6.23;;;22.20;44.00;;;;;;4692328;30;20481;-82
2021/07/04 11:12:24;;;;;;;7.50;7.00;;;22.20;44.00;;;;;;4717844;30;20200;-81
2021/07/04 11:15:18;;;;;;;9.33;8.33;;;22.20;43.90;;;;;;4703803;30;20871;-82
2021/07/04 11:18:20;;;;;;;16.07;9.83;;;22.20;44.40;;;;;;4760078;30;20440;-82
2021/07/04 11:20:48;;;;;;;9.97;8.97;;;22.20;45.00;;;;;;4754537;30;20489;-82
2021/07/04 11:24:04;;;;;;;9.73;8.80;;;22.20;45.10;;;;;;4772034;30;21003;-82
2021/07/04 11:27:10;;;;;;;8.33;7.70;;;22.20;45.30;;;;;;4738911;30;20567;-82
2021/07/04 11:30:24;;;;;;;7.30;6.80;;;22.20;43.70;;;;;;4738973;30;20437;-80
2021/07/04 11:33:28;;;;;;;7.07;6.57;;;22.20;43.50;;;;;;4754834;30;20421;-82
2021/07/04 11:36:44;;;;;;;;;;;;;;;;;;;;;
2021/07/04 11:39:16;;;;;;;7.30;6.80;;;22.20;43.40;;;;;;4809861;29;20501;-82
2021/07/04 11:49:08;;;;;;;6.97;6.47;;;22.20;43.80;;;;;;4691396;30;20427;-82
2021/07/04 11:51:44;;;;;;;6.80;6.40;;;22.20;44.00;;;;;;4757051;30;20525;-80
2021/07/04 11:54:16;;;;;;;6.87;6.30;;;22.20;44.00;;;;;;4771876;30;20439;-81
2021/07/04 11:56:48;;;;;;;6.90;6.50;;;22.20;44.00;;;;;;4775682;29;20450;-82
2021/07/04 12:00:06;;;;;;;7.67;7.17;;;22.20;43.70;;;;;;4791652;29;20472;-80
2021/07/04 12:02:51;;;;;;;6.87;6.37;;;22.20;43.80;;;;;;4805269;29;20489;-79
2021/07/04 12:05:21;;;;;;;7.20;6.70;;;22.20;43.70;;;;;;4804406;29;20419;-81
2021/07/04 12:07:56;;;;;;;7.60;6.97;;;22.20;43.60;;;;;;4792236;29;20423;-83
2021/07/04 12:10:50;;;;;;;;;;;;;;;;;;;;;
2021/07/04 12:13:16;;;;;;;6.70;6.20;;;22.20;42.90;;;;;;4793597;29;20502;-83
2021/07/04 12:15:52;;;;;;;7.20;6.70;;;22.20;42.70;;;;;;4807359;29;20594;-81
2021/07/04 12:18:44;;;;;;;6.63;6.23;;;22.20;42.80;;;;;;4806131;29;20683;-82
2021/07/04 12:21:26;;;;;;;6.60;6.10;;;22.20;42.50;;;;;;4787943;30;20471;-82
2021/07/04 12:23:58;;;;;;;6.77;6.27;;;22.20;42.50;;;;;;4791738;29;20472;-82
2021/07/04 12:26:24;;;;;;;6.80;6.40;;;22.20;42.60;;;;;;4805148;29;20479;-82
2021/07/04 12:29:03;;;;;;;7.03;6.53;;;22.20;42.70;;;;;;4804836;29;20810;-82
2021/07/04 12:31:28;;;;;;;6.67;6.17;;;22.20;42.60;;;;;;4805705;29;20662;-82
2021/07/04 12:33:54;;;;;;;6.80;6.20;;;22.20;42.50;;;;;;4807407;29;20426;-81
2021/07/04 12:36:24;;;;;;;6.67;6.20;;;22.20;42.20;;;;;;4811154;29;20209;-83
2021/07/04 12:38:52;;;;;;;6.20;5.80;;;22.20;42.20;;;;;;4813050;29;20205;-82
2021/07/04 12:41:18;;;;;;;6.93;6.40;;;22.20;42.20;;;;;;4795791;29;20497;-81
2021/07/04 12:43:46;;;;;;;6.17;5.77;;;22.20;42.20;;;;;;4809016;29;20431;-81
2021/07/04 12:46:16;;;;;;;6.70;6.30;;;22.20;42.20;;;;;;4794363;29;20201;-81
2021/07/04 12:48:47;;;;;;;7.30;6.80;;;22.20;42.20;;;;;;4793137;30;20479;-81
2021/07/04 12:51:14;;;;;;;6.57;6.17;;;22.20;42.20;;;;;;4808444;29;20484;-81
2021/07/04 12:53:41;;;;;;;6.30;5.90;;;22.20;42.20;;;;;;4808076;29;20434;-81
2021/07/04 12:56:31;;;;;;;6.70;6.30;;;22.20;42.20;;;;;;4806824;29;20534;-83
2021/07/04 12:59:01;;;;;;;7.00;6.50;;;22.20;42.20;;;;;;4804322;29;20431;-81
2021/07/04 13:01:27;;;;;;;6.53;6.03;;;22.30;42.30;;;;;;4792193;29;21061;-82
2021/07/04 13:03:55;;;;;;;7.00;6.40;;;22.20;42.20;;;;;;4816341;29;20427;-81
2021/07/04 13:06:56;;;;;;;7.50;7.07;;;22.20;42.20;;;;;;4792139;29;20206;-82
2021/07/04 13:09:23;;;;;;;6.03;5.67;;;22.30;42.30;;;;;;4790442;30;20430;-82
2021/07/04 13:12:18;;;;;;;6.30;5.90;;;22.30;42.30;;;;;;4806298;29;20794;-81
2021/07/04 13:14:50;;;;;;;6.67;6.17;;;22.30;42.30;;;;;;4783997;30;20435;-82
2021/07/04 13:17:26;;;;;;;7.00;6.43;;;22.30;42.30;;;;;;4790686;30;20451;-82
2021/07/04 13:20:01;;;;;;;6.27;5.87;;;22.30;42.30;;;;;;4804033;29;20430;-81
2021/07/04 13:22:31;;;;;;;6.93;6.30;;;22.30;42.10;;;;;;4790344;29;20431;-81
2021/07/04 13:25:13;;;;;;;6.93;6.50;;;22.20;42.20;;;;;;4803796;29;20424;-81
2021/07/04 13:27:39;;;;;;;7.03;6.60;;;22.30;42.30;;;;;;4790717;30;20957;-82
2021/07/04 13:30:13;;;;;;;7.13;6.63;;;22.20;42.20;;;;;;4791784;29;20415;-82
2021/07/04 13:33:08;;;;;;;7.00;6.50;;;22.30;42.60;;;;;;4812846;29;20435;-82
2021/07/04 13:35:44;;;;;;;7.50;6.90;;;22.30;43.10;;;;;;4793492;29;20439;-82
2021/07/04 13:38:12;;;;;;;7.83;7.23;;;22.30;43.20;;;;;;4809422;29;20941;-82
2021/07/04 13:41:11;;;;;;;7.80;7.30;;;22.30;43.20;;;;;;4794798;30;20482;-83
2021/07/04 13:43:36;;;;;;;7.57;6.80;;;22.30;44.10;;;;;;4794340;30;20423;-82
2021/07/04 13:46:06;;;;;;;8.00;7.50;;;22.30;43.80;;;;;;4808544;29;20450;-81
2021/07/04 13:48:32;;;;;;;7.53;7.03;;;22.30;44.50;;;;;;4794797;29;20185;-83
2021/07/04 13:51:05;;;;;;;8.00;7.50;;;22.30;44.60;;;;;;4808128;29;20443;-84
2021/07/04 13:53:56;;;;;;;7.80;7.30;;;22.30;44.00;;;;;;4807561;29;20940;-84
2021/07/04 13:56:31;;;;;;;7.90;7.20;;;22.30;44.30;;;;;;4794752;29;20818;-83
2021/07/04 13:58:59;;;;;;;8.00;7.33;;;22.30;45.00;;;;;;4794516;29;20437;-82
2021/07/04 14:01:25;;;;;;;8.10;7.40;;;22.30;45.00;;;;;;4794118;29;20489;-82
2021/07/04 14:03:51;;;;;;;7.70;7.20;;;22.30;44.90;;;;;;4808336;29;20423;-81
2021/07/04 14:06:17;;;;;;;8.83;8.10;;;22.30;44.80;;;;;;4807999;29;20454;-81
2021/07/04 14:09:00;;;;;;;7.60;7.00;;;22.30;45.40;;;;;;4793901;30;20180;-81
2021/07/04 14:11:26;;;;;;;7.33;6.83;;;22.40;46.40;;;;;;4808241;29;20246;-82
2021/07/04 14:14:11;;;;;;;6.83;6.40;;;22.30;45.20;;;;;;4808735;29;20427;-83
2021/07/04 14:16:37;;;;;;;7.27;6.77;;;22.30;45.10;;;;;;4807483;29;20213;-82
2021/07/04 14:19:06;;;;;;;5.93;5.57;;;22.30;45.00;;;;;;4808128;29;20512;-81
2021/07/04 14:21:34;;;;;;;6.20;5.80;;;22.30;45.00;;;;;;4793536;29;20244;-82
2021/07/04 14:38:32;;;;;;;;;;;;;;;;;;;;;
2021/07/04 14:40:58;;;;;;;4.87;4.67;;;22.30;43.90;;;;;;4812178;29;20465;-79
2021/07/04 14:43:24;;;;;;;5.00;4.50;;;22.30;43.50;;;;;;4810220;29;20477;-81
2021/07/04 14:45:51;;;;;;;4.87;4.57;;;22.20;43.20;;;;;;4809344;29;20235;-83
2021/07/04 14:49:06;;;;;;;4.93;4.63;;;22.20;43.10;;;;;;4810357;29;20185;-82